Time,TemperatureF,DewpointF,PressureIn,WindDirection,WindDirectionDegrees,WindSpeedMPH,WindSpeedGustMPH,Humidity,HourlyPrecipIn,Conditions,Clouds,dailyrainin,SolarRadiationWatts/m^2,SoftwareType,DateUTC
2013-09-28 00:11:00,42.7,27.0,30.12,WSW,238,0.0,-999.0,54,-99.99,,,0.00,0,weatherlink.com 1.10,2013-09-28 07:11:00,
2013-09-28 00:26:00,41.4,27.0,30.12,WSW,238,1.0,-999.0,56,-99.99,,,0.00,0,weatherlink.com 1.10,2013-09-28 07:26:00,
2013-09-28 00:41:00,41.4,27.0,30.12,WSW,238,0.0,-999.0,58,-99.99,,,0.00,0,weatherlink.com 1.10,2013-09-28 07:41:00,
2013-09-28 00:56:00,41.0,26.0,30.12,WSW,238,0.0,-999.0,56,-99.99,,,0.00,0,weatherlink.com 1.10,2013-09-28 07:56:00,
2013-09-28 01:11:00,40.4,27.0,30.12,WSW,238,1.0,-999.0,59,-99.99,,,0.00,0,weatherlink.com 1.10,2013-09-28 08:11:00,
2013-09-28 01:26:00,39.5,26.0,30.13,WSW,238,0.0,-999.0,59,-99.99,,,0.00,0,weatherlink.com 1.10,2013-09-28 08:26:00,
2013-09-28 01:41:00,39.1,26.0,30.13,WSW,238,2.0,-999.0,60,-99.99,,,0.00,0,weatherlink.com 1.10,2013-09-28 08:41:00,
2013-09-28 01:56:00,38.8,26.0,30.12,WSW,238,0.0,-999.0,60,-99.99,,,0.00,0,weatherlink.com 1.10,2013-09-28 08:56:00,
2013-09-28 02:11:00,38.5,26.0,30.11,WSW,238,0.0,-999.0,61,-99.99,,,0.00,0,weatherlink.com 1.10,2013-09-28 09:11:00,
2013-09-28 02:26:00,38.2,26.0,30.11,WSW,238,0.0,-999.0,62,-99.99,,,0.00,0,weatherlink.com 1.10,2013-09-28 09:26:00,
2013-09-28 02:41:00,37.9,27.0,30.11,WSW,238,0.0,-999.0,64,-99.99,,,0.00,0,weatherlink.com 1.10,2013-09-28 09:41:00,
2013-09-28 02:56:00,37.9,27.0,30.11,WSW,238,0.0,-999.0,65,-99.99,,,0.00,0,weatherlink.com 1.10,2013-09-28 09:56:00,
2013-09-28 03:11:00,37.8,27.0,30.12,WSW,238,0.0,-999.0,64,-99.99,,,0.00,0,weatherlink.com 1.10,2013-09-28 10:11:00,
2013-09-28 03:26:00,38.4,27.0,30.12,WSW,238,0.0,-999.0,63,-99.99,,,0.00,0,weatherlink.com 1.10,2013-09-28 10:26:00,
2013-09-28 03:41:00,39.4,27.0,30.12,SW,234,0.0,-999.0,62,-99.99,,,0.00,0,weatherlink.com 1.10,2013-09-28 10:41:00,
2013-09-28 03:56:00,39.1,26.0,30.12,SW,234,0.0,-999.0,59,-99.99,,,0.00,0,weatherlink.com 1.10,2013-09-28 10:56:00,
2013-09-28 04:11:00,38.5,26.0,30.12,SW,234,0.0,-999.0,61,-99.99,,,0.00,0,weatherlink.com 1.10,2013-09-28 11:11:00,
2013-09-28 04:26:00,38.0,25.0,30.12,SW,234,0.0,-999.0,60,-99.99,,,0.00,0,weatherlink.com 1.10,2013-09-28 11:26:00,
2013-09-28 04:41:00,37.2,25.0,30.12,SW,234,1.0,-999.0,61,-99.99,,,0.00,0,weatherlink.com 1.10,2013-09-28 11:41:00,
2013-09-28 04:56:00,36.9,24.0,30.12,SW,234,0.0,-999.0,61,-99.99,,,0.00,0,weatherlink.com 1.10,2013-09-28 11:56:00,
2013-09-28 05:11:00,36.5,24.0,30.12,SW,234,0.0,-999.0,61,-99.99,,,0.00,0,weatherlink.com 1.10,2013-09-28 12:11:00,
2013-09-28 05:26:00,36.3,24.0,30.13,SW,234,0.0,-999.0,61,-99.99,,,0.00,0,weatherlink.com 1.10,2013-09-28 12:26:00,
2013-09-28 05:41:00,36.9,24.0,30.13,SW,234,0.0,-999.0,59,-99.99,,,0.00,0,weatherlink.com 1.10,2013-09-28 12:41:00,
2013-09-28 05:56:00,37.2,23.0,30.14,SW,234,2.0,-999.0,57,-99.99,,,0.00,0,weatherlink.com 1.10,2013-09-28 12:56:00,
2013-09-28 06:11:00,37.1,23.0,30.14,SW,234,0.0,-999.0,56,-99.99,,,0.00,0,weatherlink.com 1.10,2013-09-28 13:11:00,
2013-09-28 06:26:00,37.1,22.0,30.14,SW,234,0.0,-999.0,54,-99.99,,,0.00,0,weatherlink.com 1.10,2013-09-28 13:26:00,
2013-09-28 06:41:00,37.3,21.0,30.14,SW,234,0.0,-999.0,53,-99.99,,,0.00,0,weatherlink.com 1.10,2013-09-28 13:41:00,
2013-09-28 06:56:00,36.9,21.0,30.14,SW,234,0.0,-999.0,53,-99.99,,,0.00,7,weatherlink.com 1.10,2013-09-28 13:56:00,
2013-09-28 07:11:00,37.1,21.0,30.14,SW,234,0.0,-999.0,53,-99.99,,,0.00,12,weatherlink.com 1.10,2013-09-28 14:11:00,
2013-09-28 07:26:00,38.1,22.0,30.14,SW,234,0.0,-999.0,53,-99.99,,,0.00,62,weatherlink.com 1.10,2013-09-28 14:26:00,
2013-09-28 07:41:00,39.6,23.0,30.14,SW,234,0.0,-999.0,52,-99.99,,,0.00,113,weatherlink.com 1.10,2013-09-28 14:41:00,
2013-09-28 07:57:00,42.9,24.0,30.14,SW,234,0.0,-999.0,47,-99.99,,,0.00,171,weatherlink.com 1.10,2013-09-28 14:57:00,
2013-09-28 08:12:00,47.3,24.0,30.14,SSW,213,1.0,-999.0,41,-99.99,,,0.00,221,weatherlink.com 1.10,2013-09-28 15:12:00,
2013-09-28 08:27:00,52.2,24.0,30.14,East,82,2.0,-999.0,33,-99.99,,,0.00,271,weatherlink.com 1.10,2013-09-28 15:27:00,
2013-09-28 08:42:00,56.7,23.0,30.14,ESE,103,4.0,-999.0,27,-99.99,,,0.00,318,weatherlink.com 1.10,2013-09-28 15:42:00,
2013-09-28 08:57:00,60.1,23.0,30.15,ESE,109,5.0,-999.0,24,-99.99,,,0.00,362,weatherlink.com 1.10,2013-09-28 15:57:00,
2013-09-28 09:12:00,63.4,22.0,30.15,East,94,7.0,-999.0,20,-99.99,,,0.00,408,weatherlink.com 1.10,2013-09-28 16:12:00,
2013-09-28 09:27:00,65.7,21.0,30.15,East,84,3.0,-999.0,18,-99.99,,,0.00,452,weatherlink.com 1.10,2013-09-28 16:27:00,
2013-09-28 09:42:00,67.6,20.0,30.15,East,101,6.0,-999.0,16,-99.99,,,0.00,490,weatherlink.com 1.10,2013-09-28 16:42:00,
2013-09-28 09:57:00,68.1,17.0,30.15,ESE,114,11.0,-999.0,14,-99.99,,,0.00,531,weatherlink.com 1.10,2013-09-28 16:57:00,
2013-09-28 10:12:00,69.1,18.0,30.15,ESE,115,6.0,-999.0,14,-99.99,,,0.00,570,weatherlink.com 1.10,2013-09-28 17:12:00,
2013-09-28 10:27:00,68.9,18.0,30.15,East,101,8.0,-999.0,14,-99.99,,,0.00,601,weatherlink.com 1.10,2013-09-28 17:27:00,
2013-09-28 10:42:00,69.4,18.0,30.15,SE,126,8.0,-999.0,14,-99.99,,,0.00,631,weatherlink.com 1.10,2013-09-28 17:42:00,
2013-09-28 10:57:00,69.8,17.0,30.15,ESE,108,12.0,-999.0,13,-99.99,,,0.00,656,weatherlink.com 1.10,2013-09-28 17:57:00,
2013-09-28 11:12:00,70.4,17.0,30.15,ESE,111,9.0,-999.0,13,-99.99,,,0.00,682,weatherlink.com 1.10,2013-09-28 18:12:00,
2013-09-28 11:28:00,70.8,16.0,30.15,ESE,117,12.0,-999.0,12,-99.99,,,0.00,701,weatherlink.com 1.10,2013-09-28 18:28:00,
2013-09-28 11:43:00,70.9,14.0,30.15,SE,144,9.0,-999.0,11,-99.99,,,0.00,719,weatherlink.com 1.10,2013-09-28 18:43:00,
2013-09-28 11:58:00,72.0,15.0,30.15,SE,130,13.0,-999.0,11,-99.99,,,0.00,731,weatherlink.com 1.10,2013-09-28 18:58:00,
2013-09-28 12:13:00,71.8,14.0,30.14,ESE,104,9.0,-999.0,11,-99.99,,,0.00,742,weatherlink.com 1.10,2013-09-28 19:13:00,
2013-09-28 12:28:00,72.4,15.0,30.14,ESE,113,13.0,-999.0,11,-99.99,,,0.00,747,weatherlink.com 1.10,2013-09-28 19:28:00,
2013-09-28 12:43:00,72.7,13.0,30.13,ESE,104,8.0,-999.0,10,-99.99,,,0.00,751,weatherlink.com 1.10,2013-09-28 19:43:00,
2013-09-28 12:58:00,73.4,13.0,30.13,ESE,104,11.0,-999.0,10,-99.99,,,0.00,747,weatherlink.com 1.10,2013-09-28 19:58:00,
2013-09-28 13:13:00,73.7,11.0,30.13,ESE,122,8.0,-999.0,9,-99.99,,,0.00,742,weatherlink.com 1.10,2013-09-28 20:13:00,
2013-09-28 13:28:00,74.0,12.0,30.12,SE,128,5.0,-999.0,9,-99.99,,,0.00,731,weatherlink.com 1.10,2013-09-28 20:28:00,
2013-09-28 13:58:00,74.8,15.0,30.11,ENE,69,6.0,-999.0,10,-99.99,,,0.00,700,weatherlink.com 1.10,2013-09-28 20:58:00,
2013-09-28 14:13:00,75.8,13.0,30.11,ENE,68,6.0,-999.0,9,-99.99,,,0.00,682,weatherlink.com 1.10,2013-09-28 21:13:00,
2013-09-28 14:28:00,75.1,12.0,30.10,ESE,117,5.0,-999.0,9,-99.99,,,0.00,657,weatherlink.com 1.10,2013-09-28 21:28:00,
2013-09-28 14:43:00,76.1,10.0,30.09,ENE,70,7.0,-999.0,8,-99.99,,,0.00,633,weatherlink.com 1.10,2013-09-28 21:43:00,
2013-09-28 14:58:00,76.0,10.0,30.09,West,273,6.0,-999.0,8,-99.99,,,0.00,601,weatherlink.com 1.10,2013-09-28 21:58:00,
2013-09-28 15:13:00,76.3,11.0,30.09,East,88,3.0,-999.0,8,-99.99,,,0.00,568,weatherlink.com 1.10,2013-09-28 22:13:00,
2013-09-28 15:28:00,76.9,11.0,30.09,North,355,2.0,-999.0,8,-99.99,,,0.00,531,weatherlink.com 1.10,2013-09-28 22:28:00,
2013-09-28 15:43:00,75.8,18.0,30.08,NNW,337,5.0,-999.0,11,-99.99,,,0.00,492,weatherlink.com 1.10,2013-09-28 22:43:00,
2013-09-28 15:58:00,76.6,18.0,30.08,NW,323,0.0,-999.0,11,-99.99,,,0.00,450,weatherlink.com 1.10,2013-09-28 22:58:00,
2013-09-28 16:13:00,76.6,18.0,30.08,North,5,7.0,-999.0,11,-99.99,,,0.00,406,weatherlink.com 1.10,2013-09-28 23:13:00,
2013-09-28 16:28:00,75.9,22.0,30.08,NNW,339,3.0,-999.0,13,-99.99,,,0.00,362,weatherlink.com 1.10,2013-09-28 23:28:00,
2013-09-28 16:43:00,75.0,21.0,30.07,NNW,336,7.0,-999.0,13,-99.99,,,0.00,318,weatherlink.com 1.10,2013-09-28 23:43:00,
2013-09-28 16:58:00,74.1,24.0,30.07,NNW,344,5.0,-999.0,15,-99.99,,,0.00,271,weatherlink.com 1.10,2013-09-28 23:58:00,
2013-09-28 17:13:00,73.3,24.0,30.07,NNW,332,7.0,-999.0,16,-99.99,,,0.00,225,weatherlink.com 1.10,2013-09-29 00:13:00,
2013-09-28 17:28:00,72.0,25.0,30.07,NNW,339,5.0,-999.0,17,-99.99,,,0.00,176,weatherlink.com 1.10,2013-09-29 00:28:00,
2013-09-28 17:43:00,71.0,25.0,30.07,NNW,332,2.0,-999.0,18,-99.99,,,0.00,120,weatherlink.com 1.10,2013-09-29 00:43:00,
2013-09-28 17:58:00,70.2,26.0,30.06,NNW,340,6.0,-999.0,19,-99.99,,,0.00,72,weatherlink.com 1.10,2013-09-29 00:58:00,
2013-09-28 18:13:00,69.3,25.0,30.07,NNW,344,4.0,-999.0,19,-99.99,,,0.00,33,weatherlink.com 1.10,2013-09-29 01:13:00,
2013-09-28 18:28:00,68.0,25.0,30.06,NW,325,0.0,-999.0,20,-99.99,,,0.00,11,weatherlink.com 1.10,2013-09-29 01:28:00,
2013-09-28 18:43:00,66.3,26.0,30.07,NW,310,2.0,-999.0,22,-99.99,,,0.00,0,weatherlink.com 1.10,2013-09-29 01:43:00,
2013-09-28 18:58:00,64.9,26.0,30.07,NW,320,0.0,-999.0,23,-99.99,,,0.00,0,weatherlink.com 1.10,2013-09-29 01:58:00,
2013-09-28 19:13:00,62.1,26.0,30.07,WNW,289,2.0,-999.0,25,-99.99,,,0.00,0,weatherlink.com 1.10,2013-09-29 02:13:00,
2013-09-28 19:28:00,60.3,24.0,30.08,WNW,289,0.0,-999.0,25,-99.99,,,0.00,0,weatherlink.com 1.10,2013-09-29 02:28:00,
2013-09-28 19:43:00,58.3,23.0,30.09,WNW,289,1.0,-999.0,26,-99.99,,,0.00,0,weatherlink.com 1.10,2013-09-29 02:43:00,
2013-09-28 19:58:00,56.4,23.0,30.09,WNW,289,0.0,-999.0,28,-99.99,,,0.00,0,weatherlink.com 1.10,2013-09-29 02:58:00,
2013-09-28 20:13:00,55.4,27.0,30.10,WNW,285,1.0,-999.0,33,-99.99,,,0.00,0,weatherlink.com 1.10,2013-09-29 03:13:00,
2013-09-28 20:28:00,56.5,26.0,30.10,WSW,256,3.0,-999.0,31,-99.99,,,0.00,0,weatherlink.com 1.10,2013-09-29 03:28:00,
2013-09-28 20:43:00,57.0,26.0,30.10,WSW,256,2.0,-999.0,31,-99.99,,,0.00,0,weatherlink.com 1.10,2013-09-29 03:43:00,
2013-09-28 20:58:00,57.0,26.0,30.11,WSW,256,3.0,-999.0,31,-99.99,,,0.00,0,weatherlink.com 1.10,2013-09-29 03:58:00,
2013-09-28 21:13:00,56.5,25.0,30.11,WSW,256,3.0,-999.0,30,-99.99,,,0.00,0,weatherlink.com 1.10,2013-09-29 04:13:00,
2013-09-28 21:28:00,55.6,25.0,30.12,WSW,257,0.0,-999.0,31,-99.99,,,0.00,0,weatherlink.com 1.10,2013-09-29 04:28:00,
2013-09-28 21:43:00,53.9,25.0,30.12,WSW,256,0.0,-999.0,33,-99.99,,,0.00,0,weatherlink.com 1.10,2013-09-29 04:43:00,
2013-09-28 21:58:00,52.6,25.0,30.13,WSW,256,0.0,-999.0,35,-99.99,,,0.00,0,weatherlink.com 1.10,2013-09-29 04:58:00,
2013-09-28 22:13:00,51.9,26.0,30.13,WSW,255,3.0,-999.0,37,-99.99,,,0.00,0,weatherlink.com 1.10,2013-09-29 05:13:00,
2013-09-28 22:28:00,54.4,28.0,30.14,SW,231,4.0,-999.0,36,-99.99,,,0.00,0,weatherlink.com 1.10,2013-09-29 05:28:00,
2013-09-28 22:43:00,55.7,29.0,30.14,SW,229,4.0,-999.0,36,-99.99,,,0.00,0,weatherlink.com 1.10,2013-09-29 05:43:00,
2013-09-28 22:58:00,56.0,28.0,30.14,SW,229,0.0,-999.0,34,-99.99,,,0.00,0,weatherlink.com 1.10,2013-09-29 05:58:00,
2013-09-28 23:13:00,54.3,27.0,30.14,SW,232,2.0,-999.0,35,-99.99,,,0.00,0,weatherlink.com 1.10,2013-09-29 06:13:00,
2013-09-28 23:28:00,54.0,27.0,30.14,SW,228,4.0,-999.0,36,-99.99,,,0.00,0,weatherlink.com 1.10,2013-09-29 06:28:00,
2013-09-28 23:43:00,55.2,28.0,30.14,WSW,250,0.0,-999.0,35,-99.99,,,0.00,0,weatherlink.com 1.10,2013-09-29 06:43:00,
2013-09-28 23:58:00,54.3,27.0,30.14,WSW,250,1.0,-999.0,35,-99.99,,,0.00,0,weatherlink.com 1.10,2013-09-29 06:58:00,